createdAt,value
2023-04-08T00:02:04.213Z,10.80
2023-04-08T00:07:07.453Z,7.63
2023-04-08T00:12:09.982Z,6.25
2023-04-08T00:17:12.290Z,5.55
2023-04-08T00:22:14.561Z,8.70
2023-04-08T00:27:17.044Z,7.93
2023-04-08T00:32:19.313Z,5.35
2023-04-08T00:37:21.408Z,8.73
2023-04-08T00:42:23.576Z,7.82
2023-04-08T00:47:26.089Z,7.55
2023-04-08T00:52:28.282Z,9.75
2023-04-08T00:57:30.451Z,7.00
2023-04-08T01:02:58.761Z,8.60
2023-04-08T01:08:05.464Z,4.72
2023-04-08T01:13:10.363Z,6.22
2023-04-08T01:18:14.488Z,7.47
2023-04-08T01:23:38.032Z,7.38
2023-04-08T01:28:41.469Z,9.88
2023-04-08T01:33:44.953Z,6.18
2023-04-08T01:38:48.854Z,5.32
2023-04-08T01:43:52.595Z,9.90
2023-04-08T01:48:56.430Z,6.22
2023-04-08T01:53:58.750Z,6.28
2023-04-08T01:59:03.504Z,6.13
2023-04-08T02:04:05.701Z,4.78
2023-04-08T02:09:08.519Z,7.40
2023-04-08T02:14:12.456Z,5.05
2023-04-08T02:19:31.595Z,7.00
2023-04-08T02:24:36.183Z,6.18
2023-04-08T02:29:40.911Z,8.60
2023-04-08T02:34:44.561Z,11.13
2023-04-08T02:39:46.823Z,5.28
2023-04-08T02:44:49.258Z,8.15
2023-04-08T02:49:53.404Z,5.57
2023-04-08T02:54:55.504Z,6.63
2023-04-08T02:59:57.632Z,7.97
2023-04-08T03:04:59.854Z,10.68
2023-04-08T03:10:02.936Z,10.98
2023-04-08T03:15:06.332Z,6.97
2023-04-08T03:20:09.079Z,16.02
2023-04-08T03:25:11.872Z,7.05
2023-04-08T03:30:15.573Z,6.70
2023-04-08T03:35:19.255Z,5.47
2023-04-08T03:40:21.487Z,5.05
2023-04-08T03:45:23.738Z,4.97
2023-04-08T03:50:26.160Z,11.52
2023-04-08T03:55:28.254Z,6.63
2023-04-08T04:00:30.859Z,8.82
2023-04-08T04:05:32.903Z,8.52
2023-04-08T04:10:36.134Z,5.78
2023-04-08T04:15:40.130Z,6.75
2023-04-08T04:20:42.988Z,8.10
2023-04-08T04:25:45.262Z,13.30
2023-04-08T04:30:47.442Z,8.80
2023-04-08T04:35:49.704Z,9.13
2023-04-08T04:40:51.817Z,11.88
2023-04-08T04:45:53.825Z,7.05
2023-04-08T04:50:56.795Z,7.25
2023-04-08T04:56:01.367Z,9.52
2023-04-08T05:01:03.533Z,10.07
2023-04-08T05:06:06.119Z,8.48
2023-04-08T05:11:11.575Z,16.73
2023-04-08T05:16:14.232Z,10.60
2023-04-08T05:21:16.429Z,12.18
2023-04-08T05:31:22.609Z,7.80
2023-04-08T05:36:24.743Z,12.75
2023-04-08T05:46:28.900Z,10.85
2023-04-08T05:51:32.081Z,8.57
2023-04-08T05:56:35.019Z,6.43
2023-04-08T06:01:37.394Z,10.57
2023-04-08T06:06:40.645Z,9.15
2023-04-08T06:11:43.079Z,13.93
2023-04-08T06:16:45.276Z,8.13
2023-04-08T06:21:47.538Z,7.65
2023-04-08T06:26:50.082Z,9.32
2023-04-08T06:31:53.036Z,7.80
2023-04-08T06:36:55.403Z,8.05
2023-04-08T06:41:58.259Z,10.98
2023-04-08T06:47:10.936Z,11.00
2023-04-08T06:52:14.785Z,13.07
2023-04-08T06:57:17.279Z,11.98
2023-04-08T07:02:19.839Z,8.20
2023-04-08T07:07:24.265Z,9.77
2023-04-08T07:12:26.329Z,10.05
2023-04-08T07:17:28.518Z,7.38
2023-04-08T07:22:30.608Z,4.43
2023-04-08T07:27:35.032Z,10.52
2023-04-08T07:32:37.283Z,9.98
2023-04-08T07:37:39.387Z,9.23
2023-04-08T07:42:41.704Z,4.35
2023-04-08T07:47:44.685Z,8.55
2023-04-08T07:52:46.816Z,4.90
2023-04-08T07:57:49.021Z,5.60
2023-04-08T08:02:51.410Z,5.80
2023-04-08T08:07:53.532Z,3.50
2023-04-08T08:12:55.773Z,10.00
2023-04-08T08:17:57.950Z,4.45
2023-04-08T08:23:00.118Z,6.28
2023-04-08T08:28:02.382Z,7.05
2023-04-08T08:33:04.609Z,6.57
2023-04-08T08:38:07.699Z,7.15
2023-04-08T08:43:10.192Z,5.85
2023-04-08T08:48:12.387Z,10.48
2023-04-08T08:53:14.481Z,8.95
2023-04-08T08:58:16.612Z,6.22
2023-04-08T09:03:21.843Z,6.93
2023-04-08T09:08:37.777Z,6.38
2023-04-08T09:13:40.440Z,16.10
2023-04-08T09:18:44.762Z,6.15
2023-04-08T09:23:48.985Z,7.43
2023-04-08T09:29:14.388Z,6.05
2023-04-08T09:34:27.542Z,9.52
2023-04-08T09:39:31.076Z,3.13
2023-04-08T09:44:34.697Z,3.40
2023-04-08T09:49:55.570Z,5.18
2023-04-08T09:55:06.802Z,7.68
2023-04-08T10:00:13.136Z,9.13
2023-04-08T10:05:18.646Z,6.70
2023-04-08T10:10:21.309Z,6.78
2023-04-08T10:15:27.159Z,6.28
2023-04-08T10:20:38.079Z,5.93
2023-04-08T10:25:41.785Z,4.30
2023-04-08T10:30:48.638Z,7.18
2023-04-08T10:35:55.120Z,5.65
2023-04-08T10:40:57.271Z,3.38
2023-04-08T10:45:59.387Z,7.50
2023-04-08T10:51:06.345Z,5.88
2023-04-08T10:56:15.233Z,12.93
2023-04-08T11:01:17.752Z,6.57
2023-04-08T11:06:19.981Z,6.25
2023-04-08T11:11:22.893Z,8.48
2023-04-08T11:16:28.089Z,7.13
2023-04-08T11:21:31.793Z,9.27
2023-04-08T11:26:34.578Z,9.05
2023-04-08T11:31:37.011Z,7.47
2023-04-08T11:36:43.055Z,8.35
2023-04-08T11:41:45.152Z,6.57
2023-04-08T11:46:57.391Z,8.65
2023-04-08T11:52:00.497Z,7.18
2023-04-08T11:57:03.217Z,6.95
2023-04-08T12:02:06.109Z,6.90
2023-04-08T12:07:08.215Z,10.05
2023-04-08T12:12:10.419Z,6.50
2023-04-08T12:17:12.756Z,12.02
2023-04-08T12:22:14.919Z,9.73
2023-04-08T12:27:17.175Z,7.32
2023-04-08T12:32:19.455Z,6.57
2023-04-08T12:37:21.842Z,9.98
2023-04-08T12:42:23.904Z,13.80
2023-04-08T12:47:26.434Z,16.60
2023-04-08T12:52:28.584Z,7.90
2023-04-08T12:57:32.138Z,9.40
2023-04-08T13:02:34.324Z,9.85
2023-04-08T13:07:36.671Z,21.67
2023-04-08T13:12:40.360Z,9.40
2023-04-08T13:17:42.523Z,6.68
2023-04-08T13:22:44.660Z,4.50
2023-04-08T13:27:46.880Z,9.63
2023-04-08T13:32:49.191Z,10.73
2023-04-08T13:37:51.470Z,8.88
2023-04-08T13:42:53.685Z,13.05
2023-04-08T13:47:56.911Z,9.35
2023-04-08T13:52:59.120Z,10.45
2023-04-08T13:58:02.424Z,13.15
2023-04-08T14:03:05.929Z,9.90
2023-04-08T14:08:09.087Z,10.20
2023-04-08T14:13:11.225Z,16.08
2023-04-08T14:18:13.541Z,9.55
2023-04-08T14:23:17.017Z,9.38
2023-04-08T14:28:19.121Z,11.50
2023-04-08T14:33:21.231Z,13.75
2023-04-08T14:38:23.307Z,11.75
2023-04-08T14:43:25.667Z,6.80
2023-04-08T14:48:30.578Z,17.67
2023-04-08T14:53:33.644Z,7.22
2023-04-08T14:58:36.134Z,15.85
2023-04-08T15:03:38.507Z,10.20
2023-04-08T15:08:40.842Z,9.77
2023-04-08T15:18:44.985Z,11.23
2023-04-08T15:23:47.191Z,11.80
2023-04-08T15:28:49.639Z,11.52
2023-04-08T15:33:52.453Z,10.15
2023-04-08T15:38:54.771Z,23.20
2023-04-08T15:43:57.169Z,10.63
2023-04-08T15:49:00.859Z,11.57
2023-04-08T15:54:03.731Z,9.93
2023-04-08T15:59:05.870Z,18.00
2023-04-08T16:04:08.235Z,12.43
2023-04-08T16:09:11.299Z,12.93
2023-04-08T16:14:13.401Z,13.02
2023-04-08T16:24:20.717Z,9.15
2023-04-08T16:29:23.034Z,13.02
2023-04-08T16:34:25.253Z,13.15
2023-04-08T16:39:27.990Z,21.55
2023-04-08T16:44:30.081Z,13.23
2023-04-08T16:49:32.243Z,16.48
2023-04-08T16:59:36.397Z,11.82
2023-04-08T17:04:38.513Z,17.20
2023-04-08T17:09:40.639Z,12.57
2023-04-08T17:14:42.786Z,25.02
2023-04-08T17:19:44.992Z,17.92
2023-04-08T17:29:56.443Z,22.45
2023-04-08T17:34:58.563Z,15.27
2023-04-08T17:45:02.844Z,21.35
2023-04-08T17:50:06.669Z,19.90
2023-04-08T17:55:09.340Z,17.23
2023-04-08T18:00:11.789Z,22.95
2023-04-08T18:05:14.466Z,25.25
2023-04-08T18:15:19.599Z,17.10
2023-04-08T18:20:22.391Z,30.67
2023-04-08T18:25:27.647Z,26.17
2023-04-08T18:30:30.425Z,23.77
2023-04-08T18:35:33.628Z,15.18
2023-04-08T18:40:35.790Z,20.70
2023-04-08T18:45:38.000Z,24.92
2023-04-08T18:50:40.481Z,18.52
2023-04-08T18:55:44.792Z,26.25
2023-04-08T19:00:46.902Z,22.10
2023-04-08T19:10:51.259Z,25.35
2023-04-08T19:15:53.330Z,25.27
2023-04-08T19:31:01.028Z,25.20
2023-04-08T19:36:03.619Z,24.40
2023-04-08T19:41:05.925Z,29.63
2023-04-08T19:46:08.791Z,25.17
2023-04-08T19:51:17.616Z,27.33
2023-04-08T19:56:20.011Z,24.95
2023-04-08T20:01:22.386Z,25.60
2023-04-08T20:06:24.517Z,22.00
2023-04-08T20:11:26.692Z,25.33
2023-04-08T20:21:30.841Z,20.95
2023-04-08T20:31:35.005Z,22.85
2023-04-08T20:36:38.166Z,21.50
2023-04-08T20:41:40.297Z,24.38
2023-04-08T20:46:42.851Z,15.77
2023-04-08T20:51:47.934Z,20.48
2023-04-08T20:56:50.031Z,23.42
2023-04-08T21:01:53.981Z,26.42
2023-04-08T21:06:56.152Z,19.65
2023-04-08T21:11:58.294Z,17.17
2023-04-08T21:22:02.829Z,20.98
2023-04-08T21:27:04.964Z,21.30
2023-04-08T21:37:09.661Z,14.80
2023-04-08T21:47:13.681Z,20.80
2023-04-08T21:57:17.971Z,14.05
2023-04-08T22:02:20.118Z,20.88
2023-04-08T22:07:22.243Z,15.75
2023-04-08T22:12:24.421Z,17.90
2023-04-08T22:17:27.187Z,20.48
2023-04-08T22:22:29.234Z,20.10
2023-04-08T22:27:32.133Z,16.65
2023-04-08T22:32:34.325Z,21.67
2023-04-08T22:37:36.743Z,18.27
2023-04-08T22:42:39.234Z,16.52
2023-04-08T22:47:41.328Z,17.55
2023-04-08T22:52:43.494Z,18.92
2023-04-08T23:02:47.718Z,20.58
2023-04-08T23:07:49.879Z,19.90
2023-04-08T23:12:52.113Z,17.85
2023-04-08T23:17:54.282Z,15.95
2023-04-08T23:22:56.764Z,21.52
2023-04-08T23:27:58.966Z,21.00
2023-04-08T23:33:01.376Z,18.17
2023-04-08T23:38:03.456Z,14.82
2023-04-08T23:43:05.812Z,21.27
2023-04-08T23:48:09.602Z,15.93
2023-04-08T23:53:12.363Z,20.65
